Weather

The location could not be found.

 

 

For a detailed forecast click the banner below.

ballooncastlogo

 

 

Available data for KABQ from the past 2 hours
ALBUQUERQUE, NM
Metar
KABQ 211052Z 22008KT 10SM FEW035 BKN055 BKN080 OVC190 05/M01 A2975 RMK AO2 SLP053 MTNS OBSC NE AND SE T00501011 $

10:52 UTC

Wind: 220° 8kt

Visibility: 10 SM

Sky: FEW 3500 ft

Temp: 5 deg C / 41 deg F

Dewpoint: -1 deg C / 30.2 deg F

Pressure: 29.75 inHg

TAF
KABQ 210520Z 2106/2206 22011KT P6SM VCSH BKN035 FM210900 26010G16KT P6SM SCT035 BKN050 FM211600 24015G25KT P6SM SCT060 FM212030 26020G32KT P6SM FEW090 FM220300 26010G18KT P6SM FEW100